Weather History for KENL - October, 2013

Change the Weather History Date:

Sunday, October 6, 2013

  Actual Average (KSLO) Record (KSLO)
Temperature  
Mean Temperature 58 °F -  
Max Temperature 66 °F 71 °F 89 °F (1963)
Min Temperature 50 °F 47 °F 32 °F (1964)
Degree Days  
Heating Degree Days 7    
Growing Degree Days 8 (Base 50)    
Moisture  
Dew Point 48 °F    
Average Humidity 68    
Maximum Humidity 92    
Minimum Humidity 43    
Precipitation  
Precipitation 0.00 in - - ()
Sea Level Pressure  
Sea Level Pressure 29.87 in    
Wind  
Wind Speed 8 mph (WSW)    
Max Wind Speed 18 mph    
Max Gust Speed 25 mph    
Visibility 10 miles    
Events      
Averages and records for this station are not official NWS values.
T = Trace of Precipitation, MM = Missing Value Source: NWS Daily Summary

Daily Weather History Graph

Daily Weather History Graph

Search for Another Location

Airport or City:

Trip Planner

Search our weather history database for the weather conditions in past years. The results will help you decide how hot, cold, wet, or windy it might be!

Date:

Astronomy

Oct. 06, 2013 Rise Set
Actual Time 6:57 AM CDT 6:31 PM CDT
Civil Twilight 6:30 AM CDT 6:57 PM CDT
Nautical Twilight 5:59 AM CDT 7:28 PM CDT
Astronomical Twilight 5:29 AM CDT 7:58 PM CDT
Moon 8:39 AM CDT (10/6) 7:32 PM CDT (10/6)
Length of Visible Light 12h 27m
Length of Day
11h 34m
Waxing Crescent, 3% of the Moon is Illuminated
Oct 6
Waxing Crescent
Oct 11
First Quarter
Oct 18
Full
Oct 26
Last Quarter
Nov 3
New

Hourly Weather History & Observations

Time (CDT) Temp. Dew Point Humidity Pressure Visibility Wind Dir Wind Speed Gust Speed Precip Events Conditions
12:15 AM 61.7 °F 56.3 °F 82% 29.87 in 10.0 mi WNW 9.2 mph - N/A   Overcast
12:35 AM 60.3 °F 54.0 °F 80% 29.90 in 10.0 mi WNW 12.7 mph 17.3 mph N/A   Overcast
12:55 AM 59.9 °F 53.6 °F 80% 29.87 in 10.0 mi NW 6.9 mph - N/A   Overcast
1:15 AM 59.5 °F 54.0 °F 82% 29.84 in 10.0 mi North 5.8 mph - N/A   Overcast
1:35 AM 59.4 °F 54.5 °F 84% 29.88 in 10.0 mi WNW 4.6 mph - N/A   Overcast
1:55 AM 59.5 °F 54.7 °F 84% 29.89 in 10.0 mi West 5.8 mph - N/A   Overcast
2:15 AM 59.7 °F 54.5 °F 83% 29.89 in 10.0 mi West 5.8 mph - N/A   Overcast
2:35 AM 59.9 °F 54.7 °F 83% 29.89 in 10.0 mi West 5.8 mph - N/A   Overcast
2:55 AM 59.5 °F 55.4 °F 86% 29.90 in 10.0 mi West 8.1 mph - N/A   Overcast
3:15 AM 59.5 °F 55.4 °F 86% 29.90 in 10.0 mi West 6.9 mph - N/A   Overcast
3:35 AM 59.4 °F 54.9 °F 85% 29.88 in 10.0 mi West 4.6 mph - N/A   Overcast
3:55 AM 59.4 °F 54.7 °F 84% 29.88 in 10.0 mi West 4.6 mph - N/A   Overcast
4:15 AM 59.2 °F 54.3 °F 84% 29.88 in 10.0 mi West 3.5 mph - N/A   Overcast
4:35 AM 59.0 °F 54.0 °F 83% 29.88 in 10.0 mi West 3.5 mph - N/A   Overcast
4:55 AM 59.0 °F 53.8 °F 83% 29.86 in 10.0 mi Calm Calm - N/A   Overcast
5:15 AM 58.8 °F 53.8 °F 83% 29.87 in 10.0 mi West 3.5 mph - N/A   Overcast
5:35 AM 58.5 °F 53.8 °F 84% 29.87 in 10.0 mi WSW 4.6 mph - N/A   Mostly Cloudy
5:55 AM 58.1 °F 54.0 °F 86% 29.87 in 10.0 mi WSW 4.6 mph - N/A   Scattered Clouds
6:15 AM 57.6 °F 53.8 °F 87% 29.88 in 10.0 mi SW 3.5 mph - N/A   Clear
6:35 AM 57.2 °F 54.5 °F 91% 29.88 in 10.0 mi SSW 4.6 mph - N/A   Scattered Clouds
6:55 AM 57.2 °F 54.5 °F 91% 29.87 in 10.0 mi SSW 3.5 mph - N/A   Mostly Cloudy
7:15 AM 56.8 °F 54.5 °F 92% 29.87 in 10.0 mi SW 3.5 mph - N/A   Mostly Cloudy
7:35 AM 56.8 °F 54.1 °F 91% 29.87 in 10.0 mi SSW 4.6 mph - N/A   Scattered Clouds
7:55 AM 56.8 °F 54.0 °F 90% 29.87 in 10.0 mi SSW 5.8 mph - N/A   Scattered Clouds
8:15 AM 57.2 °F 53.2 °F 87% 29.87 in 10.0 mi SW 6.9 mph - N/A   Clear
8:35 AM 57.4 °F 52.7 °F 84% 29.87 in 10.0 mi SW 6.9 mph - N/A   Clear
8:55 AM 57.6 °F 52.3 °F 83% 29.87 in 10.0 mi SW 8.1 mph - N/A   Clear
9:15 AM 58.1 °F 51.6 °F 79% 29.85 in 10.0 mi SW 9.2 mph - N/A   Clear
9:35 AM 59.9 °F 51.6 °F 74% 29.85 in 10.0 mi WSW 10.4 mph - N/A   Clear
9:55 AM 61.2 °F 50.7 °F 69% 29.85 in 10.0 mi SW 6.9 mph - N/A   Clear
10:15 AM 63.0 °F 49.5 °F 61% 29.86 in 10.0 mi WSW 9.2 mph - N/A   Clear
10:35 AM 63.9 °F 45.9 °F 52% 29.85 in 10.0 mi WSW 13.8 mph 18.4 mph N/A   Clear
10:55 AM 64.4 °F 45.5 °F 50% 29.85 in 10.0 mi SW 12.7 mph 16.1 mph N/A   Clear
11:15 AM 64.6 °F 43.7 °F 47% 29.85 in 10.0 mi WSW 11.5 mph 20.7 mph N/A   Clear
11:35 AM 65.3 °F 45.5 °F 49% 29.84 in 10.0 mi SW 12.7 mph 19.6 mph N/A   Clear
11:55 AM 65.5 °F 43.0 °F 44% 29.84 in 10.0 mi SW 18.4 mph 21.9 mph N/A   Clear
12:15 PM 66.0 °F 42.6 °F 43% 29.84 in 10.0 mi SW 12.7 mph 24.2 mph N/A   Clear
12:35 PM 65.8 °F 44.1 °F 45% 29.85 in 10.0 mi SW 18.4 mph 25.3 mph N/A   Scattered Clouds
12:55 PM 65.5 °F 43.3 °F 45% 29.84 in 10.0 mi SW 12.7 mph 25.3 mph N/A   Scattered Clouds
1:15 PM 64.2 °F 43.9 °F 48% 29.84 in 10.0 mi WSW 16.1 mph 24.2 mph N/A   Mostly Cloudy
1:35 PM 66.0 °F 43.7 °F 44% 29.83 in 10.0 mi WSW 16.1 mph 20.7 mph N/A   Scattered Clouds
1:55 PM 65.7 °F 43.7 °F 45% 29.83 in 10.0 mi WSW 16.1 mph 21.9 mph N/A   Clear
2:15 PM 66.0 °F 44.4 °F 46% 29.82 in 10.0 mi SW 16.1 mph 21.9 mph N/A   Scattered Clouds
2:35 PM 63.7 °F 43.5 °F 48% 29.83 in 10.0 mi West 12.7 mph 21.9 mph N/A   Clear
2:55 PM 64.8 °F 43.2 °F 45% 29.84 in 10.0 mi West 13.8 mph 20.7 mph N/A   Scattered Clouds
3:15 PM 64.0 °F 42.4 °F 45% 29.84 in 10.0 mi West 15.0 mph 24.2 mph N/A   Scattered Clouds
3:35 PM 62.8 °F 42.8 °F 48% 29.84 in 10.0 mi West 15.0 mph 20.7 mph N/A   Scattered Clouds
3:55 PM 62.6 °F 42.1 °F 47% 29.84 in 10.0 mi West 13.8 mph 18.4 mph N/A   Mostly Cloudy
4:15 PM 62.8 °F 41.9 °F 46% 29.84 in 10.0 mi West 15.0 mph 20.7 mph N/A   Mostly Cloudy
4:35 PM 61.2 °F 41.4 °F 48% 29.85 in 10.0 mi West 15.0 mph 23.0 mph N/A   Scattered Clouds
4:55 PM 61.0 °F 42.1 °F 50% 29.85 in 10.0 mi West 13.8 mph - N/A   Mostly Cloudy
5:15 PM 60.4 °F 41.9 °F 50% 29.87 in 10.0 mi West 10.4 mph 20.7 mph N/A   Overcast
5:35 PM 59.4 °F 41.7 °F 52% 29.88 in 10.0 mi West 16.1 mph 19.6 mph N/A   Overcast
5:55 PM 58.6 °F 41.0 °F 52% 29.88 in 10.0 mi West 17.3 mph 24.2 mph N/A   Overcast
6:15 PM 58.3 °F 41.0 °F 53% 29.89 in 10.0 mi West 11.5 mph 19.6 mph N/A   Overcast
6:35 PM 58.1 °F 41.4 °F 54% 29.90 in 10.0 mi West 9.2 mph - N/A   Overcast
6:55 PM 57.7 °F 41.2 °F 54% 29.90 in 10.0 mi West 9.2 mph - N/A   Overcast
7:15 PM 56.1 °F 41.4 °F 58% 29.90 in 10.0 mi West 6.9 mph - N/A   Scattered Clouds
7:35 PM 54.5 °F 42.3 °F 63% 29.91 in 10.0 mi WSW 5.8 mph - N/A   Scattered Clouds
7:55 PM 53.8 °F 42.8 °F 66% 29.90 in 10.0 mi WSW 5.8 mph - N/A   Scattered Clouds
8:15 PM 53.4 °F 42.8 °F 67% 29.90 in 10.0 mi WSW 5.8 mph - N/A   Clear
8:35 PM 52.2 °F 43.2 °F 71% 29.91 in 10.0 mi WSW 4.6 mph - N/A   Clear
8:55 PM 51.1 °F 43.5 °F 75% 29.91 in 10.0 mi WSW 5.8 mph - N/A   Clear
9:15 PM 50.9 °F 43.2 °F 75% 29.91 in 10.0 mi SW 5.8 mph - N/A   Clear
9:35 PM 50.5 °F 43.3 °F 76% 29.91 in 10.0 mi SSW 5.8 mph - N/A   Clear
9:55 PM 52.0 °F 44.1 °F 74% 29.91 in 10.0 mi SW 5.8 mph - N/A   Mostly Cloudy
10:15 PM 53.4 °F 44.2 °F 71% 29.91 in 10.0 mi SW 8.1 mph - N/A   Overcast
10:35 PM 54.0 °F 44.4 °F 70% 29.90 in 10.0 mi SW 6.9 mph - N/A   Overcast
10:55 PM 54.7 °F 44.6 °F 69% 29.90 in 10.0 mi SW 8.1 mph - N/A   Overcast
11:15 PM 54.9 °F 44.8 °F 69% 29.90 in 10.0 mi SSW 9.2 mph - N/A   Overcast
11:35 PM 55.2 °F 44.8 °F 68% 29.90 in 10.0 mi SW 9.2 mph - N/A   Overcast
11:55 PM 55.4 °F 44.6 °F 67% 29.90 in 10.0 mi SW 10.4 mph - N/A   Overcast